Time;durP1;ratioP1;P1;durP2;ratioP2;P2;SDS_P1;SDS_P2;PMS_P1;PMS_P2;Temp;Humidity;BMP_temperature;BMP_pressure;BME280_temperature;BME280_humidity;BME280_pressure;Samples;Min_cycle;Max_cycle;Signal;HPM_P1;HPM_P2
2021/01/01 00:01:34;;;;;;;7.30;5.13;;;2.80;99.90;;;;;;4827647;29;20621;-88
2021/01/01 00:04:01;;;;;;;6.27;5.13;;;2.80;99.90;;;;;;4825916;29;20208;-88
2021/01/01 00:06:26;;;;;;;5.63;3.73;;;2.90;99.90;;;;;;4825427;29;20200;-89
2021/01/01 00:08:52;;;;;;;5.50;4.73;;;2.90;99.90;;;;;;4827465;29;20231;-90
2021/01/01 00:11:18;;;;;;;10.40;4.47;;;2.90;99.90;;;;;;4826463;29;20224;-89
2021/01/01 00:13:44;;;;;;;8.77;5.50;;;3.00;99.90;;;;;;4842679;29;20224;-88
2021/01/01 00:16:11;;;;;;;8.97;4.37;;;3.00;99.90;;;;;;4842621;29;20315;-88
2021/01/01 00:18:38;;;;;;;3.73;3.43;;;3.10;99.90;;;;;;4844258;29;20203;-91
2021/01/01 00:21:04;;;;;;;3.17;2.40;;;3.20;99.90;;;;;;4843287;29;20310;-88
2021/01/01 00:23:30;;;;;;;2.30;2.10;;;3.20;99.90;;;;;;4825855;29;20236;-88
2021/01/01 00:25:55;;;;;;;2.47;2.27;;;3.20;99.90;;;;;;4859803;29;20741;-89
2021/01/01 00:28:21;;;;;;;5.87;3.17;;;3.30;99.90;;;;;;4825036;29;20287;-90
2021/01/01 00:30:47;;;;;;;21.80;2.30;;;3.40;99.90;;;;;;4844251;29;20205;-89
2021/01/01 00:33:13;;;;;;;2.63;2.07;;;3.40;99.90;;;;;;4826651;29;20216;-88
2021/01/01 00:35:38;;;;;;;1.23;1.23;;;3.40;99.90;;;;;;4843545;29;20230;-88
2021/01/01 00:38:06;;;;;;;1.93;1.47;;;3.40;99.90;;;;;;4844224;29;20232;-88
2021/01/01 00:40:32;;;;;;;1.80;1.13;;;3.40;99.90;;;;;;4839823;29;20240;-88
2021/01/01 00:42:58;;;;;;;22.80;1.93;;;3.40;99.90;;;;;;4825374;29;20972;-88
2021/01/01 00:45:23;;;;;;;2.63;2.17;;;3.40;99.90;;;;;;4842794;29;20188;-88
2021/01/01 00:47:49;;;;;;;2.53;1.70;;;3.50;99.90;;;;;;4826063;29;20817;-92
2021/01/01 00:50:16;;;;;;;3.27;1.70;;;3.50;99.90;;;;;;4826245;29;20287;-93
2021/01/01 00:52:42;;;;;;;1.00;1.00;;;3.50;99.90;;;;;;4827866;29;20232;-88
2021/01/01 00:55:08;;;;;;;2.17;1.90;;;3.50;99.90;;;;;;4841450;29;20198;-88
2021/01/01 00:57:34;;;;;;;1.60;1.50;;;3.50;99.90;;;;;;4850195;29;20193;-91
2021/01/01 01:00:01;;;;;;;1.37;1.27;;;3.50;99.90;;;;;;4842814;29;20638;-88
2021/01/01 01:02:26;;;;;;;2.43;0.90;;;3.50;99.90;;;;;;4826452;29;20217;-87
2021/01/01 01:04:52;;;;;;;1.43;1.40;;;3.50;99.90;;;;;;4827006;29;20215;-88
2021/01/01 01:07:18;;;;;;;2.40;2.30;;;3.60;99.90;;;;;;4823977;29;20260;-89
2021/01/01 01:09:44;;;;;;;10.23;5.97;;;3.60;99.90;;;;;;4841074;29;20317;-89
2021/01/01 01:12:10;;;;;;;5.40;4.67;;;3.60;99.90;;;;;;4825739;29;20216;-88
2021/01/01 01:14:36;;;;;;;2.90;2.30;;;3.50;99.90;;;;;;4827040;29;20311;-88
2021/01/01 01:17:02;;;;;;;4.97;4.57;;;3.30;99.90;;;;;;4842591;29;20244;-87
2021/01/01 01:19:28;;;;;;;4.93;3.77;;;3.30;99.90;;;;;;4855959;29;20248;-87
2021/01/01 01:21:53;;;;;;;3.70;3.40;;;3.20;99.90;;;;;;4856193;29;20196;-92
2021/01/01 01:24:19;;;;;;;4.50;3.97;;;3.20;99.90;;;;;;4843190;29;20196;-87
2021/01/01 01:26:45;;;;;;;13.10;4.97;;;3.20;99.90;;;;;;4823831;29;20717;-88
2021/01/01 01:29:11;;;;;;;7.13;5.67;;;3.20;99.90;;;;;;4806432;29;20832;-90
2021/01/01 01:31:38;;;;;;;7.97;4.83;;;3.20;99.90;;;;;;4838283;29;20228;-92
2021/01/01 01:34:04;;;;;;;6.00;5.50;;;3.10;99.90;;;;;;4836824;29;20312;-90
2021/01/01 01:36:31;;;;;;;14.43;5.43;;;3.10;99.90;;;;;;4856591;29;20184;-90
2021/01/01 01:38:56;;;;;;;8.87;8.17;;;3.10;99.90;;;;;;4834155;29;20242;-88
2021/01/01 01:41:22;;;;;;;11.03;9.77;;;3.10;99.90;;;;;;4822046;29;20231;-93
2021/01/01 01:43:48;;;;;;;6.03;5.47;;;3.10;99.90;;;;;;4834778;29;20687;-88
2021/01/01 01:46:14;;;;;;;5.10;4.23;;;3.10;99.90;;;;;;4821927;29;20600;-88
2021/01/01 01:48:41;;;;;;;8.00;5.13;;;3.10;99.90;;;;;;4841835;29;20213;-89
2021/01/01 01:51:09;;;;;;;2.53;2.33;;;3.10;99.90;;;;;;4837657;29;20223;-93
2021/01/01 01:53:40;;;;;;;7.77;4.90;;;3.00;99.90;;;;;;4858368;29;20227;-88
2021/01/01 01:56:07;;;;;;;9.90;6.73;;;3.00;99.90;;;;;;4855916;29;20227;-88
2021/01/01 01:58:34;;;;;;;12.57;8.63;;;2.90;99.90;;;;;;4826829;29;20232;-88
2021/01/01 02:01:00;;;;;;;15.73;7.00;;;3.00;99.90;;;;;;4824565;29;20196;-88
2021/01/01 02:03:27;;;;;;;10.73;5.80;;;3.00;99.90;;;;;;4857190;29;21186;-87
2021/01/01 02:05:53;;;;;;;5.33;4.43;;;3.10;99.90;;;;;;4857711;29;20219;-88
2021/01/01 02:08:20;;;;;;;6.70;6.00;;;3.20;99.90;;;;;;4841154;29;20232;-89
2021/01/01 02:10:48;;;;;;;3.20;3.00;;;3.20;99.90;;;;;;4822889;29;20231;-87
2021/01/01 02:13:14;;;;;;;3.40;2.63;;;3.20;99.90;;;;;;4843431;29;20311;-88
2021/01/01 02:15:40;;;;;;;4.30;3.90;;;3.30;99.90;;;;;;4827402;29;20197;-89
2021/01/01 02:18:06;;;;;;;5.73;4.27;;;3.30;99.90;;;;;;4808062;29;20222;-87
2021/01/01 02:20:31;;;;;;;8.37;6.93;;;3.30;99.90;;;;;;4827692;29;20248;-88
2021/01/01 02:22:57;;;;;;;3.83;3.40;;;3.30;99.90;;;;;;4840209;29;20378;-87
2021/01/01 02:25:23;;;;;;;6.83;4.13;;;3.30;99.90;;;;;;4807964;29;20221;-88
2021/01/01 02:27:49;;;;;;;5.63;4.37;;;3.10;99.90;;;;;;4843332;29;20664;-91
2021/01/01 02:30:15;;;;;;;9.03;4.77;;;3.10;99.90;;;;;;4825873;29;20233;-87
2021/01/01 02:32:42;;;;;;;9.53;6.43;;;3.00;99.90;;;;;;4840902;29;20224;-87
2021/01/01 02:35:08;;;;;;;11.87;5.03;;;2.90;99.90;;;;;;4826016;29;20265;-87
2021/01/01 02:37:34;;;;;;;4.83;4.47;;;2.90;99.90;;;;;;4840103;29;20232;-88
2021/01/01 02:40:00;;;;;;;3.07;2.90;;;2.90;99.90;;;;;;4822196;29;20338;-87
2021/01/01 02:42:26;;;;;;;2.40;2.07;;;3.00;99.90;;;;;;4827624;29;20189;-87
2021/01/01 02:44:51;;;;;;;3.30;2.97;;;3.00;99.90;;;;;;4826283;29;20220;-88
2021/01/01 02:47:17;;;;;;;2.30;1.80;;;3.00;99.90;;;;;;4843580;29;20220;-89
2021/01/01 02:49:43;;;;;;;2.10;2.00;;;3.00;99.90;;;;;;4859134;29;20626;-87
2021/01/01 02:52:09;;;;;;;3.67;3.03;;;3.00;99.90;;;;;;4844632;29;20192;-91
2021/01/01 02:54:35;;;;;;;4.90;3.07;;;3.00;99.90;;;;;;4845338;29;20654;-87
2021/01/01 02:57:01;;;;;;;6.50;3.27;;;2.90;99.90;;;;;;4860536;29;20249;-88
2021/01/01 02:59:27;;;;;;;4.00;3.70;;;2.90;99.90;;;;;;4828663;29;20286;-90
2021/01/01 03:01:53;;;;;;;7.37;5.17;;;2.90;99.90;;;;;;4844124;29;20231;-88
2021/01/01 03:04:19;;;;;;;5.27;4.00;;;2.90;99.90;;;;;;4859177;29;20231;-87
2021/01/01 03:06:45;;;;;;;5.60;4.90;;;2.80;99.90;;;;;;4815561;29;20205;-89
2021/01/01 03:09:11;;;;;;;14.23;5.23;;;2.70;99.90;;;;;;4842476;29;20722;-89
2021/01/01 03:11:37;;;;;;;6.90;5.07;;;2.70;99.90;;;;;;4842600;29;20224;-89
2021/01/01 03:14:02;;;;;;;6.73;4.17;;;2.70;99.90;;;;;;4841504;29;21028;-86
2021/01/01 03:16:28;;;;;;;11.63;3.60;;;2.70;99.90;;;;;;4842634;29;20869;-87
2021/01/01 03:18:54;;;;;;;1.83;1.73;;;2.60;99.90;;;;;;4829399;29;20241;-87
2021/01/01 03:21:21;;;;;;;1.87;1.37;;;2.70;99.90;;;;;;4845588;29;20196;-88
2021/01/01 03:23:47;;;;;;;0.67;0.60;;;2.80;99.90;;;;;;4814466;29;20250;-90
2021/01/01 03:26:13;;;;;;;1.97;1.33;;;2.90;99.90;;;;;;4828214;29;20272;-89
2021/01/01 03:28:40;;;;;;;1.23;1.00;;;2.90;99.90;;;;;;4825394;29;20267;-88
2021/01/01 03:31:07;;;;;;;1.47;0.93;;;2.90;99.90;;;;;;4858633;29;20246;-90
2021/01/01 03:33:33;;;;;;;0.73;0.67;;;2.90;99.90;;;;;;4828450;29;20547;-88
2021/01/01 03:36:03;;;;;;;0.87;0.80;;;3.00;99.90;;;;;;4843418;29;20224;-88
2021/01/01 03:38:32;;;;;;;0.73;0.73;;;3.00;99.90;;;;;;4828474;29;20220;-88
2021/01/01 03:40:59;;;;;;;1.70;1.60;;;3.00;99.90;;;;;;4844090;29;20342;-88
2021/01/01 03:43:24;;;;;;;1.37;1.03;;;3.00;99.90;;;;;;4844919;29;20228;-91
2021/01/01 03:45:50;;;;;;;5.07;1.50;;;2.90;99.90;;;;;;4844490;29;20199;-87
2021/01/01 03:48:16;;;;;;;2.27;2.07;;;2.90;99.90;;;;;;4861120;29;20196;-88
2021/01/01 03:50:43;;;;;;;2.00;0.80;;;2.90;99.90;;;;;;4829202;29;20232;-88
2021/01/01 03:53:09;;;;;;;4.00;1.97;;;2.90;99.90;;;;;;4828513;29;20228;-88
2021/01/01 03:55:35;;;;;;;2.60;2.40;;;3.00;99.90;;;;;;4814464;29;20266;-87
2021/01/01 03:58:01;;;;;;;0.90;0.90;;;3.00;99.90;;;;;;4812354;29;20240;-88
2021/01/01 04:00:26;;;;;;;2.43;1.23;;;3.00;99.90;;;;;;4843710;29;20236;-88
2021/01/01 04:02:52;;;;;;;0.70;0.70;;;3.00;99.90;;;;;;4856937;29;20236;-89
2021/01/01 04:05:18;;;;;;;0.20;0.20;;;3.00;99.90;;;;;;4858486;29;20284;-88
2021/01/01 04:07:44;;;;;;;0.20;0.20;;;2.90;99.90;;;;;;4812477;29;20235;-88
2021/01/01 04:10:10;;;;;;;0.30;0.30;;;2.90;99.90;;;;;;4827126;29;20243;-89
2021/01/01 04:12:36;;;;;;;1.03;0.97;;;2.90;99.90;;;;;;4829749;29;20220;-88
2021/01/01 04:15:02;;;;;;;0.60;0.50;;;2.90;99.90;;;;;;4826814;29;20227;-88
2021/01/01 04:17:28;;;;;;;0.93;0.67;;;2.90;99.90;;;;;;4844309;29;20992;-87
2021/01/01 04:19:54;;;;;;;0.60;0.60;;;2.90;99.90;;;;;;4810594;29;20248;-88
2021/01/01 04:22:19;;;;;;;0.50;0.50;;;2.90;99.90;;;;;;4825822;29;20261;-88
2021/01/01 04:24:45;;;;;;;0.47;0.40;;;2.80;99.90;;;;;;4813125;29;21093;-87
2021/01/01 04:27:11;;;;;;;4.93;0.87;;;3.00;99.90;;;;;;4839404;29;20264;-90
2021/01/01 04:29:37;;;;;;;0.30;0.30;;;3.00;99.90;;;;;;4827700;29;20235;-88
2021/01/01 04:32:02;;;;;;;0.30;0.30;;;3.00;99.90;;;;;;4812704;29;20224;-91
2021/01/01 04:34:28;;;;;;;0.30;0.30;;;3.00;99.90;;;;;;4826209;29;20227;-89
2021/01/01 04:36:54;;;;;;;0.40;0.40;;;2.90;99.90;;;;;;4811147;29;20683;-90
2021/01/01 04:39:19;;;;;;;0.37;0.37;;;2.90;99.90;;;;;;4843372;29;20255;-87
2021/01/01 04:41:49;;;;;;;0.97;0.87;;;2.90;99.90;;;;;;4825302;29;20264;-88
2021/01/01 04:44:16;;;;;;;0.37;0.37;;;2.80;99.90;;;;;;4839921;29;20303;-90
2021/01/01 04:46:42;;;;;;;0.30;0.30;;;2.80;99.90;;;;;;4826697;29;20694;-93
2021/01/01 04:49:08;;;;;;;0.20;0.20;;;2.80;99.90;;;;;;4860361;29;20684;-90
2021/01/01 04:51:35;;;;;;;1.27;1.27;;;2.90;99.90;;;;;;4828902;29;20284;-91
2021/01/01 04:54:03;;;;;;;0.83;0.47;;;3.00;99.90;;;;;;4840564;29;20233;-89
2021/01/01 04:56:29;;;;;;;0.20;0.20;;;3.00;99.90;;;;;;4824661;29;20225;-90
2021/01/01 04:58:55;;;;;;;0.30;0.30;;;3.20;99.90;;;;;;4858390;29;20227;-89
2021/01/01 05:01:24;;;;;;;0.50;0.30;;;3.20;99.90;;;;;;4824939;29;20225;-89
2021/01/01 05:03:50;;;;;;;0.30;0.30;;;3.20;99.90;;;;;;4858172;29;20306;-87
2021/01/01 05:06:29;;;;;;;0.10;0.10;;;3.20;99.90;;;;;;4857775;29;20208;-88
2021/01/01 05:08:55;;;;;;;0.20;0.20;;;3.30;99.90;;;;;;4811213;29;20252;-87
2021/01/01 05:11:22;;;;;;;0.40;0.40;;;3.40;99.90;;;;;;4822997;29;20624;-89
2021/01/01 05:13:58;;;;;;;0.90;0.90;;;3.30;99.90;;;;;;4856365;29;20231;-88
2021/01/01 05:16:24;;;;;;;0.27;0.27;;;3.30;99.90;;;;;;4841490;29;20566;-88
2021/01/01 05:18:51;;;;;;;0.30;0.30;;;3.30;99.90;;;;;;4841525;29;20553;-87
2021/01/01 05:21:22;;;;;;;0.20;0.20;;;3.30;99.90;;;;;;4842323;29;20283;-88
2021/01/01 05:23:50;;;;;;;0.37;0.37;;;3.30;99.90;;;;;;4827295;29;21194;-88
2021/01/01 05:26:17;;;;;;;0.40;0.40;;;3.20;99.90;;;;;;4840220;29;21200;-89
2021/01/01 05:28:49;;;;;;;0.20;0.20;;;3.20;99.90;;;;;;4839714;29;20760;-89
2021/01/01 05:31:39;;;;;;;0.30;0.30;;;3.20;99.90;;;;;;4840703;29;20252;-89
2021/01/01 05:34:07;;;;;;;0.30;0.30;;;3.10;99.90;;;;;;4856115;29;20189;-89
2021/01/01 05:36:39;;;;;;;0.23;0.23;;;3.10;99.90;;;;;;4840923;29;20199;-90
2021/01/01 05:39:21;;;;;;;0.20;0.20;;;3.10;99.90;;;;;;4840441;29;20235;-88
2021/01/01 05:41:51;;;;;;;0.20;0.20;;;3.10;99.90;;;;;;4857155;29;20270;-88
2021/01/01 05:44:19;;;;;;;0.53;0.50;;;3.10;99.90;;;;;;4840862;29;20221;-90
2021/01/01 05:46:56;;;;;;;0.77;0.77;;;3.10;99.90;;;;;;4842549;29;20234;-87
2021/01/01 05:49:29;;;;;;;0.77;0.57;;;3.10;99.90;;;;;;4839894;29;20228;-88
2021/01/01 05:52:11;;;;;;;0.20;0.20;;;3.10;99.90;;;;;;4839903;29;20177;-86
2021/01/01 05:54:39;;;;;;;0.80;0.57;;;3.10;99.90;;;;;;4841053;29;21009;-90
2021/01/01 05:57:07;;;;;;;0.40;0.40;;;3.00;99.90;;;;;;4855586;29;20331;-89
2021/01/01 05:59:38;;;;;;;0.77;0.77;;;3.00;99.90;;;;;;4840542;29;20236;-87
2021/01/01 06:02:05;;;;;;;0.30;0.30;;;3.00;99.90;;;;;;4841087;29;20292;-88
2021/01/01 06:04:32;;;;;;;0.30;0.30;;;2.90;99.90;;;;;;4855657;29;20252;-88
2021/01/01 06:07:00;;;;;;;0.30;0.30;;;2.90;99.90;;;;;;4839070;29;20584;-89
2021/01/01 06:09:29;;;;;;;0.67;0.67;;;2.90;99.90;;;;;;4841743;29;20189;-89
2021/01/01 06:12:00;;;;;;;0.50;0.50;;;2.80;99.90;;;;;;4839786;29;20656;-89
2021/01/01 06:14:31;;;;;;;0.60;0.60;;;2.90;99.90;;;;;;4858009;29;20223;-88
2021/01/01 06:17:09;;;;;;;0.33;0.33;;;2.80;99.90;;;;;;4841375;29;20232;-88
2021/01/01 06:19:51;;;;;;;1.80;0.50;;;2.80;99.90;;;;;;4854033;29;20269;-88
2021/01/01 06:22:20;;;;;;;0.20;0.20;;;2.80;99.90;;;;;;4845319;29;20223;-87
2021/01/01 06:24:49;;;;;;;0.67;0.67;;;2.80;99.90;;;;;;4844322;29;20193;-89
2021/01/01 06:27:16;;;;;;;0.10;0.10;;;2.80;99.90;;;;;;4843969;29;20248;-89
2021/01/01 06:29:48;;;;;;;0.23;0.23;;;2.90;99.90;;;;;;4828131;29;20696;-88
2021/01/01 06:32:18;;;;;;;0.30;0.30;;;2.90;99.90;;;;;;4845145;29;21206;-87
2021/01/01 06:34:43;;;;;;;0.20;0.20;;;2.90;99.90;;;;;;4843882;29;20230;-89
2021/01/01 06:37:42;;;;;;;0.10;0.10;;;2.90;99.90;;;;;;4842537;29;20200;-92
2021/01/01 06:40:35;;;;;;;0.50;0.50;;;2.90;99.90;;;;;;4856999;29;20807;-92
2021/01/01 06:43:06;;;;;;;0.50;0.50;;;2.90;99.90;;;;;;4854541;29;20311;-87
2021/01/01 06:45:40;;;;;;;0.37;0.37;;;3.00;99.90;;;;;;4859465;29;20215;-90
2021/01/01 06:48:29;;;;;;;0.40;0.40;;;3.00;99.90;;;;;;4856797;29;20259;-92
2021/01/01 06:50:55;;;;;;;0.30;0.30;;;3.00;99.90;;;;;;4831613;29;20397;-90
2021/01/01 06:53:30;;;;;;;0.40;0.40;;;3.10;99.90;;;;;;4825718;29;20670;-91
2021/01/01 06:56:11;;;;;;;1.10;1.10;;;3.10;99.90;;;;;;4826711;29;20228;-88
2021/01/01 06:58:37;;;;;;;0.40;0.40;;;3.10;99.90;;;;;;4856214;29;20232;-87
2021/01/01 07:01:13;;;;;;;0.20;0.20;;;3.10;99.90;;;;;;4826583;29;20272;-88
2021/01/01 07:03:39;;;;;;;1.13;0.27;;;3.10;99.90;;;;;;4829418;29;20707;-92
2021/01/01 07:06:05;;;;;;;0.97;0.67;;;3.10;99.90;;;;;;4830172;29;20231;-88
2021/01/01 07:08:42;;;;;;;0.20;0.20;;;3.10;99.90;;;;;;4844732;29;20229;-87
2021/01/01 07:11:11;;;;;;;0.10;0.10;;;3.10;99.90;;;;;;4841475;29;20234;-89
2021/01/01 07:13:40;;;;;;;0.30;0.30;;;3.10;99.90;;;;;;4849492;29;20243;-90
2021/01/01 07:16:06;;;;;;;0.20;0.20;;;3.10;99.90;;;;;;4849477;29;20200;-90
2021/01/01 07:18:31;;;;;;;0.60;0.60;;;3.10;99.90;;;;;;4844606;29;20196;-89
2021/01/01 07:21:09;;;;;;;0.30;0.30;;;3.10;99.90;;;;;;4812199;29;20317;-91
2021/01/01 07:23:35;;;;;;;0.33;0.33;;;3.10;99.90;;;;;;4859619;29;20216;-89
2021/01/01 07:26:05;;;;;;;0.37;0.37;;;3.10;99.90;;;;;;4829020;29;20224;-87
2021/01/01 07:28:31;;;;;;;0.40;0.40;;;3.10;99.90;;;;;;4842721;29;20315;-87
2021/01/01 07:30:59;;;;;;;1.90;0.83;;;3.10;99.90;;;;;;4829534;29;20243;-87
2021/01/01 07:33:29;;;;;;;0.30;0.30;;;3.10;99.90;;;;;;4862088;29;20204;-90
2021/01/01 07:36:00;;;;;;;0.60;0.60;;;3.10;99.90;;;;;;4828799;29;20235;-87
2021/01/01 07:38:30;;;;;;;1.17;1.07;;;3.10;99.90;;;;;;4859882;29;20224;-88
2021/01/01 07:40:56;;;;;;;0.70;0.70;;;3.10;99.90;;;;;;4858236;29;20228;-88
2021/01/01 07:43:22;;;;;;;1.00;0.50;;;3.10;99.90;;;;;;4842706;29;20224;-90
2021/01/01 07:45:49;;;;;;;1.77;1.67;;;3.10;99.90;;;;;;4841193;29;20203;-88
2021/01/01 07:48:15;;;;;;;0.40;0.40;;;3.00;99.90;;;;;;4826514;29;20216;-90
2021/01/01 07:50:41;;;;;;;1.90;1.80;;;3.00;99.90;;;;;;4842639;29;20713;-87
2021/01/01 07:53:12;;;;;;;0.60;0.60;;;3.00;99.90;;;;;;4842145;29;20263;-88
2021/01/01 07:55:40;;;;;;;0.40;0.40;;;2.90;99.90;;;;;;4826092;29;20549;-88
2021/01/01 07:58:07;;;;;;;1.07;0.93;;;2.90;99.90;;;;;;4856830;29;20195;-90
2021/01/01 08:00:39;;;;;;;0.60;0.60;;;2.90;99.90;;;;;;4845687;29;20225;-88
2021/01/01 08:03:06;;;;;;;0.60;0.60;;;2.90;99.90;;;;;;4859256;29;20224;-89
2021/01/01 08:05:33;;;;;;;0.53;0.53;;;2.80;99.90;;;;;;4841887;29;20231;-89
2021/01/01 08:08:22;;;;;;;1.30;1.20;;;2.80;99.90;;;;;;4828708;29;20987;-88
2021/01/01 08:10:49;;;;;;;6.77;1.80;;;2.90;99.90;;;;;;4857926;29;21394;-88
2021/01/01 08:13:27;;;;;;;1.30;1.30;;;3.00;99.90;;;;;;4844804;29;20223;-86
2021/01/01 08:15:55;;;;;;;0.50;0.50;;;3.00;99.90;;;;;;4842607;29;20192;-89
2021/01/01 08:18:27;;;;;;;0.50;0.50;;;3.00;99.90;;;;;;4862695;29;20184;-88
2021/01/01 08:21:01;;;;;;;0.30;0.30;;;3.10;99.90;;;;;;4841624;29;20240;-86
2021/01/01 08:23:37;;;;;;;0.33;0.33;;;3.10;99.90;;;;;;4856002;29;20220;-89
2021/01/01 08:26:06;;;;;;;0.40;0.40;;;3.10;99.90;;;;;;4843390;29;20224;-86
2021/01/01 08:28:34;;;;;;;3.93;1.33;;;3.20;99.90;;;;;;4843416;29;20249;-87
2021/01/01 08:31:05;;;;;;;0.50;0.50;;;3.40;99.90;;;;;;4840687;29;20205;-87
2021/01/01 08:33:44;;;;;;;0.87;0.87;;;3.50;99.90;;;;;;4841315;29;20189;-86
2021/01/01 08:36:11;;;;;;;0.43;0.43;;;3.50;99.90;;;;;;4843675;29;20216;-87
2021/01/01 08:38:40;;;;;;;0.40;0.40;;;3.50;99.90;;;;;;4828972;29;20236;-88
2021/01/01 08:41:06;;;;;;;1.03;1.00;;;3.40;99.90;;;;;;4856679;29;20235;-87
2021/01/01 08:43:32;;;;;;;1.03;0.93;;;3.40;99.90;;;;;;4827549;29;21273;-90
2021/01/01 08:45:58;;;;;;;0.67;0.67;;;3.40;99.90;;;;;;4812334;29;20192;-89
2021/01/01 08:48:30;;;;;;;0.80;0.80;;;3.40;99.90;;;;;;4859836;29;20282;-90
2021/01/01 08:50:56;;;;;;;0.50;0.50;;;3.40;99.90;;;;;;4825426;29;20231;-87
2021/01/01 08:53:22;;;;;;;0.30;0.30;;;3.40;99.90;;;;;;4826824;29;20370;-88
2021/01/01 08:55:59;;;;;;;0.33;0.33;;;3.40;99.90;;;;;;4841750;29;20232;-87
2021/01/01 08:58:25;;;;;;;0.30;0.30;;;3.50;99.90;;;;;;4841878;29;20230;-89
2021/01/01 09:00:51;;;;;;;1.73;0.37;;;3.50;99.90;;;;;;4857597;29;20964;-91
2021/01/01 09:03:20;;;;;;;0.60;0.60;;;3.60;99.90;;;;;;4827766;29;20203;-89
2021/01/01 09:05:46;;;;;;;0.30;0.30;;;3.60;99.90;;;;;;4835020;29;20223;-87
2021/01/01 09:08:17;;;;;;;0.43;0.43;;;3.60;99.90;;;;;;4827224;29;20219;-88
2021/01/01 09:10:47;;;;;;;0.30;0.30;;;3.70;99.90;;;;;;4840131;29;20227;-88
2021/01/01 09:13:18;;;;;;;0.40;0.40;;;3.70;99.90;;;;;;4842436;29;20230;-88
2021/01/01 09:15:45;;;;;;;0.60;0.60;;;3.80;99.90;;;;;;4841944;29;20207;-86
2021/01/01 09:18:11;;;;;;;0.60;0.60;;;3.80;99.90;;;;;;4826691;29;20311;-87
2021/01/01 09:20:46;;;;;;;0.50;0.50;;;3.80;99.90;;;;;;4841185;29;20247;-87
2021/01/01 09:23:12;;;;;;;0.50;0.50;;;3.80;99.90;;;;;;4858565;29;20220;-90
2021/01/01 09:25:40;;;;;;;4.87;1.60;;;3.80;99.90;;;;;;4826111;29;20251;-86
2021/01/01 09:28:09;;;;;;;0.50;0.50;;;3.70;99.90;;;;;;4856859;29;20642;-87
2021/01/01 09:30:39;;;;;;;0.73;0.73;;;3.70;99.90;;;;;;4857134;29;21221;-88
2021/01/01 09:33:07;;;;;;;0.50;0.47;;;3.70;99.90;;;;;;4825002;29;20216;-87
2021/01/01 09:35:33;;;;;;;3.00;1.00;;;3.70;99.90;;;;;;4824139;29;20231;-90
2021/01/01 09:38:02;;;;;;;0.20;0.20;;;3.70;99.90;;;;;;4818459;29;20223;-89
2021/01/01 09:40:31;;;;;;;0.40;0.40;;;3.70;99.90;;;;;;4840730;29;20239;-86
2021/01/01 09:43:01;;;;;;;2.73;0.60;;;3.80;99.90;;;;;;4857802;29;20224;-88
2021/01/01 09:45:27;;;;;;;0.30;0.30;;;3.90;99.90;;;;;;4857403;29;20238;-87
2021/01/01 09:47:53;;;;;;;6.93;0.80;;;3.90;99.90;;;;;;4826358;29;20307;-87
2021/01/01 09:50:19;;;;;;;0.67;0.67;;;3.90;99.90;;;;;;4856731;29;21046;-89
2021/01/01 09:52:44;;;;;;;0.80;0.80;;;4.00;99.90;;;;;;4809146;29;20267;-86
2021/01/01 09:55:10;;;;;;;0.17;0.17;;;4.00;99.90;;;;;;4828415;29;20255;-87
2021/01/01 09:57:38;;;;;;;0.20;0.20;;;4.00;99.90;;;;;;4841836;29;20194;-86
2021/01/01 10:00:09;;;;;;;1.40;1.30;;;4.00;99.90;;;;;;4824878;29;20232;-86
2021/01/01 10:02:35;;;;;;;0.87;0.87;;;4.00;99.90;;;;;;4841600;29;20235;-87
2021/01/01 10:05:01;;;;;;;1.13;0.80;;;4.10;99.90;;;;;;4823872;29;20331;-89
2021/01/01 10:07:28;;;;;;;0.40;0.40;;;4.10;99.90;;;;;;4819356;29;20217;-88
2021/01/01 10:09:54;;;;;;;0.83;0.83;;;4.10;99.90;;;;;;4823930;29;20285;-90
2021/01/01 10:12:19;;;;;;;0.80;0.77;;;4.10;99.90;;;;;;4827636;29;20594;-92
2021/01/01 10:14:45;;;;;;;0.80;0.80;;;4.20;99.90;;;;;;4828388;29;20249;-90
2021/01/01 10:17:11;;;;;;;0.67;0.67;;;4.30;99.90;;;;;;4856327;29;20697;-90
2021/01/01 10:19:41;;;;;;;0.70;0.70;;;4.50;99.90;;;;;;4826374;29;20804;-91
2021/01/01 10:22:08;;;;;;;5.97;0.80;;;4.60;99.90;;;;;;4827014;29;20204;-90
2021/01/01 10:24:34;;;;;;;1.03;1.03;;;4.70;99.90;;;;;;4842004;29;20224;-92
2021/01/01 10:27:00;;;;;;;0.87;0.80;;;4.70;99.90;;;;;;4809375;29;20324;-91
2021/01/01 10:29:26;;;;;;;0.53;0.53;;;4.70;99.90;;;;;;4824156;29;20248;-91
2021/01/01 10:31:51;;;;;;;0.53;0.53;;;4.80;99.90;;;;;;4840838;29;20233;-91
2021/01/01 10:34:18;;;;;;;0.93;0.83;;;4.90;99.90;;;;;;4841004;29;20228;-93
2021/01/01 10:36:44;;;;;;;0.50;0.50;;;4.90;99.90;;;;;;4827127;29;20697;-94
2021/01/01 10:39:10;;;;;;;0.67;0.50;;;5.00;99.90;;;;;;4824454;29;20284;-91
2021/01/01 10:41:40;;;;;;;0.30;0.30;;;5.00;99.90;;;;;;4842118;29;20973;-93
2021/01/01 10:44:06;;;;;;;0.30;0.30;;;5.10;99.90;;;;;;4840117;29;20213;-91
2021/01/01 10:46:32;;;;;;;0.83;0.77;;;5.10;99.90;;;;;;4816347;29;20236;-92
2021/01/01 10:49:00;;;;;;;0.97;0.90;;;5.20;99.90;;;;;;4840759;29;20204;-92
2021/01/01 10:51:27;;;;;;;0.33;0.33;;;5.30;99.90;;;;;;4827806;29;20680;-93
2021/01/01 10:53:55;;;;;;;0.70;0.30;;;5.30;99.90;;;;;;4825053;29;20228;-91
2021/01/01 10:56:23;;;;;;;0.20;0.20;;;5.40;99.90;;;;;;4837994;29;20221;-92
2021/01/01 10:58:49;;;;;;;0.47;0.47;;;5.50;99.90;;;;;;4840600;29;20227;-91
2021/01/01 11:01:22;;;;;;;0.40;0.40;;;5.50;99.90;;;;;;4857003;29;20251;-92
2021/01/01 11:03:49;;;;;;;0.37;0.37;;;5.40;99.90;;;;;;4825392;29;20275;-89
2021/01/01 11:06:15;;;;;;;3.00;0.57;;;5.30;99.90;;;;;;4824714;29;20264;-90
2021/01/01 11:08:42;;;;;;;0.30;0.30;;;5.20;99.90;;;;;;4845344;29;20248;-92
2021/01/01 11:11:10;;;;;;;0.30;0.30;;;5.20;99.90;;;;;;4843295;29;20275;-91
2021/01/01 11:13:45;;;;;;;1.00;0.83;;;5.20;99.90;;;;;;4844199;29;21310;-91
2021/01/01 12:22:50;;;;;;;1.43;1.17;;;6.40;99.90;;;;;;4828361;29;20251;-92
2021/01/01 12:25:16;;;;;;;0.97;0.87;;;6.40;99.90;;;;;;4819418;29;20228;-92
2021/01/01 12:27:43;;;;;;;1.00;1.00;;;6.50;99.90;;;;;;4844462;29;20575;-90
2021/01/01 12:30:11;;;;;;;1.77;0.73;;;6.50;99.90;;;;;;4828601;29;20244;-87
2021/01/01 12:32:41;;;;;;;0.77;0.77;;;6.60;99.90;;;;;;4857036;29;20776;-90
2021/01/01 12:35:08;;;;;;;0.73;0.73;;;6.70;99.90;;;;;;4840022;29;20881;-89
2021/01/01 12:37:35;;;;;;;1.17;0.90;;;6.90;99.90;;;;;;4840513;29;20232;-90
2021/01/01 12:40:02;;;;;;;1.90;1.37;;;7.00;99.90;;;;;;4856960;29;20607;-89
2021/01/01 12:42:28;;;;;;;1.27;0.63;;;7.10;99.90;;;;;;4839800;29;20227;-89
2021/01/01 12:44:54;;;;;;;0.67;0.67;;;7.30;99.90;;;;;;4826272;29;20334;-92
2021/01/01 12:47:20;;;;;;;1.03;0.93;;;7.40;99.90;;;;;;4825596;29;21012;-91
2021/01/01 12:49:45;;;;;;;0.90;0.90;;;7.40;99.90;;;;;;4827930;29;20594;-87
2021/01/01 12:52:12;;;;;;;0.67;0.67;;;7.50;99.90;;;;;;4823564;29;20268;-88
2021/01/01 12:54:38;;;;;;;1.63;1.40;;;7.50;99.90;;;;;;4812104;29;20201;-88
2021/01/01 12:57:04;;;;;;;0.90;0.67;;;7.60;99.90;;;;;;4842958;29;20220;-89
2021/01/01 12:59:30;;;;;;;3.23;1.23;;;7.60;99.90;;;;;;4841303;29;20658;-88
2021/01/01 13:01:56;;;;;;;1.00;1.00;;;7.60;99.90;;;;;;4824486;29;20223;-90
2021/01/01 13:04:22;;;;;;;1.70;1.07;;;7.40;99.90;;;;;;4826282;29;20234;-88
2021/01/01 13:06:48;;;;;;;1.60;1.50;;;7.40;99.90;;;;;;4840639;29;20193;-90
2021/01/01 13:09:13;;;;;;;2.27;1.23;;;7.40;99.90;;;;;;4823341;29;20236;-89
2021/01/01 13:11:43;;;;;;;2.13;0.77;;;7.40;99.90;;;;;;4826802;29;20236;-88
2021/01/01 13:14:09;;;;;;;1.27;1.17;;;7.50;99.90;;;;;;4840490;29;20240;-89
2021/01/01 13:16:35;;;;;;;3.13;1.80;;;7.40;99.90;;;;;;4810781;29;20216;-87
2021/01/01 13:19:01;;;;;;;2.30;2.10;;;7.40;99.90;;;;;;4857406;29;20309;-89
2021/01/01 13:21:37;;;;;;;1.47;1.37;;;7.20;99.90;;;;;;4828191;29;20238;-89
2021/01/01 13:24:04;;;;;;;4.50;1.80;;;7.20;99.90;;;;;;4839842;29;20228;-90
2021/01/01 13:26:30;;;;;;;4.07;1.47;;;7.30;99.90;;;;;;4840485;29;20295;-89
2021/01/01 13:28:58;;;;;;;1.37;1.23;;;7.40;99.90;;;;;;4837979;29;20320;-89
2021/01/01 13:31:40;;;;;;;1.20;1.10;;;7.50;99.90;;;;;;4838895;29;20284;-91
2021/01/01 13:34:07;;;;;;;0.40;0.40;;;7.50;99.90;;;;;;4840736;29;20232;-90
2021/01/01 13:36:34;;;;;;;0.70;0.70;;;7.40;99.90;;;;;;4859986;29;20196;-90
2021/01/01 13:39:00;;;;;;;0.30;0.30;;;7.40;99.90;;;;;;4838968;29;20312;-91
2021/01/01 13:41:26;;;;;;;0.53;0.53;;;7.40;99.90;;;;;;4856527;29;20241;-89
2021/01/01 13:43:53;;;;;;;0.83;0.83;;;7.40;99.90;;;;;;4824896;29;20686;-89
2021/01/01 13:46:21;;;;;;;0.73;0.50;;;7.30;99.90;;;;;;4841371;29;20220;-89
2021/01/01 13:48:48;;;;;;;1.00;0.57;;;7.40;99.90;;;;;;4856811;29;20216;-91
2021/01/01 13:51:13;;;;;;;1.43;1.20;;;7.40;99.90;;;;;;4824106;29;20243;-91
2021/01/01 13:53:39;;;;;;;2.33;1.47;;;7.40;99.90;;;;;;4842004;29;20656;-89
2021/01/01 13:56:05;;;;;;;1.43;1.00;;;7.50;99.90;;;;;;4855782;29;20721;-92
2021/01/01 13:58:31;;;;;;;0.50;0.50;;;7.40;99.90;;;;;;4840614;29;20231;-90
2021/01/01 14:00:56;;;;;;;3.87;0.90;;;7.40;99.90;;;;;;4809307;29;20662;-89
2021/01/01 14:03:22;;;;;;;0.90;0.90;;;7.40;99.90;;;;;;4825390;29;20325;-90
2021/01/01 14:05:51;;;;;;;0.90;0.90;;;7.40;99.90;;;;;;4824115;29;20235;-88
2021/01/01 14:08:18;;;;;;;2.53;2.33;;;7.50;99.90;;;;;;4838286;29;20604;-89